sensor_id;sensor_type;location;lat;lon;timestamp;P1;durP1;ratioP1;P2;durP2;ratioP2
41249;SDS011;26984;59.928;30.306;2023-05-10T00:01:11;14.90;;;6.88;;
41249;SDS011;26984;59.928;30.306;2023-05-10T00:03:40;12.25;;;6.95;;
41249;SDS011;26984;59.928;30.306;2023-05-10T00:06:08;11.85;;;7.25;;
41249;SDS011;26984;59.928;30.306;2023-05-10T00:08:36;12.55;;;6.97;;
41249;SDS011;26984;59.928;30.306;2023-05-10T00:11:04;11.82;;;6.75;;
41249;SDS011;26984;59.928;30.306;2023-05-10T00:13:31;12.15;;;6.70;;
41249;SDS011;26984;59.928;30.306;2023-05-10T00:15:59;14.73;;;6.80;;
41249;SDS011;26984;59.928;30.306;2023-05-10T00:18:27;11.82;;;6.82;;
41249;SDS011;26984;59.928;30.306;2023-05-10T00:20:56;12.10;;;6.90;;
41249;SDS011;26984;59.928;30.306;2023-05-10T00:23:24;13.20;;;7.28;;
41249;SDS011;26984;59.928;30.306;2023-05-10T00:25:52;14.70;;;7.00;;
41249;SDS011;26984;59.928;30.306;2023-05-10T00:28:20;14.15;;;7.20;;
41249;SDS011;26984;59.928;30.306;2023-05-10T00:30:48;15.00;;;7.50;;
41249;SDS011;26984;59.928;30.306;2023-05-10T00:33:16;12.98;;;6.65;;
41249;SDS011;26984;59.928;30.306;2023-05-10T00:35:44;11.63;;;6.80;;
41249;SDS011;26984;59.928;30.306;2023-05-10T00:38:13;13.68;;;7.00;;
41249;SDS011;26984;59.928;30.306;2023-05-10T00:40:41;15.50;;;7.38;;
41249;SDS011;26984;59.928;30.306;2023-05-10T00:43:17;14.27;;;6.55;;
41249;SDS011;26984;59.928;30.306;2023-05-10T00:45:46;14.00;;;6.82;;
41249;SDS011;26984;59.928;30.306;2023-05-10T00:48:15;10.73;;;6.90;;
41249;SDS011;26984;59.928;30.306;2023-05-10T00:53:13;12.38;;;6.57;;
41249;SDS011;26984;59.928;30.306;2023-05-10T00:55:43;13.50;;;8.07;;
41249;SDS011;26984;59.928;30.306;2023-05-10T00:58:12;18.73;;;7.25;;
41249;SDS011;26984;59.928;30.306;2023-05-10T01:03:09;18.58;;;9.27;;
41249;SDS011;26984;59.928;30.306;2023-05-10T01:05:37;18.98;;;9.38;;
41249;SDS011;26984;59.928;30.306;2023-05-10T01:08:06;19.52;;;9.30;;
41249;SDS011;26984;59.928;30.306;2023-05-10T01:10:36;21.10;;;9.30;;
41249;SDS011;26984;59.928;30.306;2023-05-10T01:13:04;23.02;;;10.10;;
41249;SDS011;26984;59.928;30.306;2023-05-10T01:15:32;26.08;;;9.75;;
41249;SDS011;26984;59.928;30.306;2023-05-10T01:20:32;18.13;;;9.57;;
41249;SDS011;26984;59.928;30.306;2023-05-10T01:23:18;23.38;;;9.20;;
41249;SDS011;26984;59.928;30.306;2023-05-10T01:26:16;27.40;;;10.45;;
41249;SDS011;26984;59.928;30.306;2023-05-10T01:28:58;25.08;;;10.77;;
41249;SDS011;26984;59.928;30.306;2023-05-10T01:32:16;32.65;;;12.60;;
41249;SDS011;26984;59.928;30.306;2023-05-10T01:34:55;28.58;;;12.20;;
41249;SDS011;26984;59.928;30.306;2023-05-10T01:37:33;25.25;;;12.63;;
41249;SDS011;26984;59.928;30.306;2023-05-10T01:40:09;23.45;;;11.85;;
41249;SDS011;26984;59.928;30.306;2023-05-10T01:42:47;29.58;;;11.40;;
41249;SDS011;26984;59.928;30.306;2023-05-10T01:45:21;21.77;;;10.73;;
41249;SDS011;26984;59.928;30.306;2023-05-10T01:47:58;22.05;;;10.57;;
41249;SDS011;26984;59.928;30.306;2023-05-10T01:50:33;25.05;;;10.35;;
41249;SDS011;26984;59.928;30.306;2023-05-10T01:53:06;30.38;;;10.95;;
41249;SDS011;26984;59.928;30.306;2023-05-10T01:55:35;19.75;;;9.45;;
41249;SDS011;26984;59.928;30.306;2023-05-10T01:58:09;22.27;;;10.02;;
41249;SDS011;26984;59.928;30.306;2023-05-10T02:00:41;22.67;;;11.05;;
41249;SDS011;26984;59.928;30.306;2023-05-10T02:03:13;32.67;;;10.60;;
41249;SDS011;26984;59.928;30.306;2023-05-10T02:05:43;24.08;;;10.40;;
41249;SDS011;26984;59.928;30.306;2023-05-10T02:08:13;22.58;;;10.68;;
41249;SDS011;26984;59.928;30.306;2023-05-10T02:10:41;24.05;;;11.52;;
41249;SDS011;26984;59.928;30.306;2023-05-10T02:13:12;25.58;;;11.80;;
41249;SDS011;26984;59.928;30.306;2023-05-10T02:15:43;28.02;;;11.88;;
41249;SDS011;26984;59.928;30.306;2023-05-10T02:18:15;25.30;;;11.88;;
41249;SDS011;26984;59.928;30.306;2023-05-10T02:20:45;22.25;;;10.48;;
41249;SDS011;26984;59.928;30.306;2023-05-10T02:23:15;21.95;;;10.73;;
41249;SDS011;26984;59.928;30.306;2023-05-10T02:25:45;24.42;;;10.70;;
41249;SDS011;26984;59.928;30.306;2023-05-10T02:28:15;23.58;;;12.18;;
41249;SDS011;26984;59.928;30.306;2023-05-10T02:30:45;19.77;;;10.95;;
41249;SDS011;26984;59.928;30.306;2023-05-10T02:33:16;24.48;;;10.38;;
41249;SDS011;26984;59.928;30.306;2023-05-10T02:35:45;20.58;;;10.60;;
41249;SDS011;26984;59.928;30.306;2023-05-10T02:38:14;25.70;;;11.38;;
41249;SDS011;26984;59.928;30.306;2023-05-10T02:40:43;22.05;;;11.30;;
41249;SDS011;26984;59.928;30.306;2023-05-10T02:43:14;24.67;;;11.57;;
41249;SDS011;26984;59.928;30.306;2023-05-10T02:45:44;23.42;;;10.77;;
41249;SDS011;26984;59.928;30.306;2023-05-10T02:48:16;23.33;;;11.88;;
41249;SDS011;26984;59.928;30.306;2023-05-10T02:50:45;30.50;;;11.75;;
41249;SDS011;26984;59.928;30.306;2023-05-10T02:53:18;21.45;;;11.60;;
41249;SDS011;26984;59.928;30.306;2023-05-10T02:55:50;20.92;;;11.80;;
41249;SDS011;26984;59.928;30.306;2023-05-10T02:58:19;24.23;;;12.02;;
41249;SDS011;26984;59.928;30.306;2023-05-10T03:00:49;24.70;;;11.52;;
41249;SDS011;26984;59.928;30.306;2023-05-10T03:03:18;22.48;;;11.32;;
41249;SDS011;26984;59.928;30.306;2023-05-10T03:05:49;23.88;;;11.90;;
41249;SDS011;26984;59.928;30.306;2023-05-10T03:08:19;22.63;;;12.05;;
41249;SDS011;26984;59.928;30.306;2023-05-10T03:10:54;26.77;;;12.25;;
41249;SDS011;26984;59.928;30.306;2023-05-10T03:13:35;31.80;;;13.02;;
41249;SDS011;26984;59.928;30.306;2023-05-10T03:18:50;27.58;;;12.90;;
41249;SDS011;26984;59.928;30.306;2023-05-10T03:21:24;28.67;;;13.35;;
41249;SDS011;26984;59.928;30.306;2023-05-10T03:23:58;31.90;;;13.32;;
41249;SDS011;26984;59.928;30.306;2023-05-10T03:26:29;24.40;;;11.85;;
41249;SDS011;26984;59.928;30.306;2023-05-10T03:29:07;30.58;;;13.82;;
41249;SDS011;26984;59.928;30.306;2023-05-10T03:31:37;26.40;;;12.93;;
41249;SDS011;26984;59.928;30.306;2023-05-10T03:34:07;28.30;;;13.65;;
41249;SDS011;26984;59.928;30.306;2023-05-10T03:36:35;25.83;;;12.90;;
41249;SDS011;26984;59.928;30.306;2023-05-10T03:39:03;30.92;;;14.35;;
41249;SDS011;26984;59.928;30.306;2023-05-10T03:41:31;25.60;;;13.18;;
41249;SDS011;26984;59.928;30.306;2023-05-10T03:43:59;18.45;;;12.55;;
41249;SDS011;26984;59.928;30.306;2023-05-10T03:46:28;20.08;;;10.63;;
41249;SDS011;26984;59.928;30.306;2023-05-10T03:48:56;20.83;;;10.90;;
41249;SDS011;26984;59.928;30.306;2023-05-10T03:51:25;16.50;;;10.00;;
41249;SDS011;26984;59.928;30.306;2023-05-10T03:53:54;14.05;;;9.07;;
41249;SDS011;26984;59.928;30.306;2023-05-10T03:56:23;14.40;;;8.80;;
41249;SDS011;26984;59.928;30.306;2023-05-10T04:01:18;15.95;;;9.57;;
41249;SDS011;26984;59.928;30.306;2023-05-10T04:03:46;14.65;;;9.30;;
41249;SDS011;26984;59.928;30.306;2023-05-10T04:06:14;17.35;;;8.43;;
41249;SDS011;26984;59.928;30.306;2023-05-10T04:08:43;16.55;;;9.90;;
41249;SDS011;26984;59.928;30.306;2023-05-10T04:11:11;17.23;;;10.55;;
41249;SDS011;26984;59.928;30.306;2023-05-10T04:13:40;19.13;;;10.07;;
41249;SDS011;26984;59.928;30.306;2023-05-10T04:16:08;17.27;;;10.77;;
41249;SDS011;26984;59.928;30.306;2023-05-10T04:18:36;19.25;;;10.10;;
41249;SDS011;26984;59.928;30.306;2023-05-10T04:21:10;17.95;;;10.75;;
41249;SDS011;26984;59.928;30.306;2023-05-10T04:23:39;14.60;;;10.43;;
41249;SDS011;26984;59.928;30.306;2023-05-10T04:26:08;23.10;;;10.82;;
41249;SDS011;26984;59.928;30.306;2023-05-10T04:28:36;18.80;;;11.65;;
41249;SDS011;26984;59.928;30.306;2023-05-10T04:31:05;16.30;;;11.07;;
41249;SDS011;26984;59.928;30.306;2023-05-10T04:33:33;18.38;;;11.82;;
41249;SDS011;26984;59.928;30.306;2023-05-10T04:36:02;18.65;;;10.60;;
41249;SDS011;26984;59.928;30.306;2023-05-10T04:38:30;16.65;;;10.90;;
41249;SDS011;26984;59.928;30.306;2023-05-10T04:41:04;17.90;;;11.02;;
41249;SDS011;26984;59.928;30.306;2023-05-10T04:43:35;19.17;;;10.75;;
41249;SDS011;26984;59.928;30.306;2023-05-10T04:46:03;16.60;;;10.15;;
41249;SDS011;26984;59.928;30.306;2023-05-10T04:48:31;17.88;;;10.70;;
41249;SDS011;26984;59.928;30.306;2023-05-10T04:50:59;16.63;;;9.82;;
41249;SDS011;26984;59.928;30.306;2023-05-10T04:53:29;21.05;;;10.00;;
41249;SDS011;26984;59.928;30.306;2023-05-10T04:55:57;16.85;;;9.60;;
41249;SDS011;26984;59.928;30.306;2023-05-10T04:58:25;16.40;;;10.88;;
41249;SDS011;26984;59.928;30.306;2023-05-10T05:00:55;17.02;;;10.63;;
41249;SDS011;26984;59.928;30.306;2023-05-10T05:03:23;20.83;;;10.48;;
41249;SDS011;26984;59.928;30.306;2023-05-10T05:05:51;13.15;;;8.57;;
41249;SDS011;26984;59.928;30.306;2023-05-10T05:08:18;15.02;;;8.93;;
41249;SDS011;26984;59.928;30.306;2023-05-10T05:10:59;12.60;;;8.60;;
41249;SDS011;26984;59.928;30.306;2023-05-10T05:13:40;11.57;;;7.20;;
41249;SDS011;26984;59.928;30.306;2023-05-10T05:16:10;13.82;;;9.20;;
41249;SDS011;26984;59.928;30.306;2023-05-10T05:18:38;15.48;;;9.23;;
41249;SDS011;26984;59.928;30.306;2023-05-10T05:21:13;13.15;;;8.80;;
41249;SDS011;26984;59.928;30.306;2023-05-10T05:23:42;16.65;;;8.65;;
41249;SDS011;26984;59.928;30.306;2023-05-10T05:26:10;12.98;;;7.18;;
41249;SDS011;26984;59.928;30.306;2023-05-10T05:31:06;10.80;;;7.80;;
41249;SDS011;26984;59.928;30.306;2023-05-10T05:33:41;13.65;;;8.50;;
41249;SDS011;26984;59.928;30.306;2023-05-10T05:36:13;10.27;;;6.35;;
41249;SDS011;26984;59.928;30.306;2023-05-10T05:38:41;17.63;;;9.82;;
41249;SDS011;26984;59.928;30.306;2023-05-10T05:43:38;16.03;;;6.87;;
41249;SDS011;26984;59.928;30.306;2023-05-10T05:46:06;16.30;;;8.10;;
41249;SDS011;26984;59.928;30.306;2023-05-10T05:48:34;11.90;;;7.97;;
41249;SDS011;26984;59.928;30.306;2023-05-10T05:53:31;15.55;;;8.40;;
41249;SDS011;26984;59.928;30.306;2023-05-10T05:55:59;14.25;;;8.00;;
41249;SDS011;26984;59.928;30.306;2023-05-10T05:58:27;14.07;;;7.57;;
41249;SDS011;26984;59.928;30.306;2023-05-10T06:00:55;11.50;;;8.20;;
41249;SDS011;26984;59.928;30.306;2023-05-10T06:03:23;16.20;;;7.85;;
41249;SDS011;26984;59.928;30.306;2023-05-10T06:05:51;11.05;;;6.80;;
41249;SDS011;26984;59.928;30.306;2023-05-10T06:08:21;20.33;;;7.53;;
41249;SDS011;26984;59.928;30.306;2023-05-10T06:10:49;12.15;;;8.02;;
41249;SDS011;26984;59.928;30.306;2023-05-10T06:13:16;10.00;;;6.47;;
41249;SDS011;26984;59.928;30.306;2023-05-10T06:15:44;15.35;;;7.30;;
41249;SDS011;26984;59.928;30.306;2023-05-10T06:18:12;10.27;;;5.82;;
41249;SDS011;26984;59.928;30.306;2023-05-10T06:20:41;14.98;;;6.43;;
41249;SDS011;26984;59.928;30.306;2023-05-10T06:23:09;10.90;;;6.30;;
41249;SDS011;26984;59.928;30.306;2023-05-10T06:25:39;11.15;;;6.28;;
41249;SDS011;26984;59.928;30.306;2023-05-10T06:28:07;17.67;;;7.45;;
41249;SDS011;26984;59.928;30.306;2023-05-10T06:33:03;12.77;;;7.25;;
41249;SDS011;26984;59.928;30.306;2023-05-10T06:35:31;10.48;;;6.63;;
41249;SDS011;26984;59.928;30.306;2023-05-10T06:37:59;13.65;;;6.85;;
41249;SDS011;26984;59.928;30.306;2023-05-10T06:40:27;13.63;;;6.30;;
41249;SDS011;26984;59.928;30.306;2023-05-10T06:45:24;13.18;;;6.53;;
41249;SDS011;26984;59.928;30.306;2023-05-10T06:47:52;12.40;;;7.55;;
41249;SDS011;26984;59.928;30.306;2023-05-10T06:52:48;8.25;;;5.30;;
41249;SDS011;26984;59.928;30.306;2023-05-10T06:55:15;7.13;;;4.45;;
41249;SDS011;26984;59.928;30.306;2023-05-10T06:57:43;8.18;;;5.20;;
41249;SDS011;26984;59.928;30.306;2023-05-10T07:00:13;11.27;;;5.30;;
41249;SDS011;26984;59.928;30.306;2023-05-10T07:02:42;14.27;;;5.78;;
41249;SDS011;26984;59.928;30.306;2023-05-10T07:05:10;13.50;;;6.03;;
41249;SDS011;26984;59.928;30.306;2023-05-10T07:10:06;11.88;;;5.85;;
41249;SDS011;26984;59.928;30.306;2023-05-10T07:12:35;9.50;;;5.75;;
41249;SDS011;26984;59.928;30.306;2023-05-10T07:15:03;12.82;;;4.90;;
41249;SDS011;26984;59.928;30.306;2023-05-10T07:17:33;12.75;;;4.43;;
41249;SDS011;26984;59.928;30.306;2023-05-10T07:20:00;11.80;;;4.57;;
41249;SDS011;26984;59.928;30.306;2023-05-10T07:22:29;12.60;;;5.18;;
41249;SDS011;26984;59.928;30.306;2023-05-10T07:27:25;9.45;;;4.28;;
41249;SDS011;26984;59.928;30.306;2023-05-10T07:29:53;8.63;;;4.88;;
41249;SDS011;26984;59.928;30.306;2023-05-10T07:32:22;10.52;;;5.20;;
41249;SDS011;26984;59.928;30.306;2023-05-10T07:34:51;8.15;;;4.60;;
41249;SDS011;26984;59.928;30.306;2023-05-10T07:37:19;10.38;;;4.20;;
41249;SDS011;26984;59.928;30.306;2023-05-10T07:39:47;10.02;;;4.45;;
41249;SDS011;26984;59.928;30.306;2023-05-10T07:42:15;8.88;;;4.50;;
41249;SDS011;26984;59.928;30.306;2023-05-10T07:44:43;12.35;;;4.75;;
41249;SDS011;26984;59.928;30.306;2023-05-10T07:47:11;4.97;;;3.83;;
41249;SDS011;26984;59.928;30.306;2023-05-10T07:49:39;12.90;;;4.72;;
41249;SDS011;26984;59.928;30.306;2023-05-10T07:52:08;11.43;;;3.83;;
41249;SDS011;26984;59.928;30.306;2023-05-10T07:54:36;12.15;;;4.57;;
41249;SDS011;26984;59.928;30.306;2023-05-10T07:57:04;10.73;;;4.28;;
41249;SDS011;26984;59.928;30.306;2023-05-10T07:59:32;8.15;;;3.50;;
41249;SDS011;26984;59.928;30.306;2023-05-10T08:02:00;5.60;;;3.45;;
41249;SDS011;26984;59.928;30.306;2023-05-10T08:04:28;5.28;;;3.58;;
41249;SDS011;26984;59.928;30.306;2023-05-10T08:06:56;5.03;;;2.95;;
41249;SDS011;26984;59.928;30.306;2023-05-10T08:09:25;7.43;;;4.57;;
41249;SDS011;26984;59.928;30.306;2023-05-10T08:11:53;11.38;;;4.35;;
41249;SDS011;26984;59.928;30.306;2023-05-10T08:16:48;10.18;;;4.53;;
41249;SDS011;26984;59.928;30.306;2023-05-10T08:19:16;6.90;;;4.00;;
41249;SDS011;26984;59.928;30.306;2023-05-10T08:21:45;11.55;;;4.40;;
41249;SDS011;26984;59.928;30.306;2023-05-10T08:24:13;6.05;;;4.05;;
41249;SDS011;26984;59.928;30.306;2023-05-10T08:26:42;7.88;;;4.00;;
41249;SDS011;26984;59.928;30.306;2023-05-10T08:29:10;8.02;;;4.50;;
41249;SDS011;26984;59.928;30.306;2023-05-10T08:31:38;7.10;;;4.13;;
41249;SDS011;26984;59.928;30.306;2023-05-10T08:36:34;8.02;;;3.80;;
41249;SDS011;26984;59.928;30.306;2023-05-10T08:39:02;6.38;;;3.63;;
41249;SDS011;26984;59.928;30.306;2023-05-10T08:41:30;11.13;;;4.15;;
41249;SDS011;26984;59.928;30.306;2023-05-10T08:44:05;5.28;;;4.00;;
41249;SDS011;26984;59.928;30.306;2023-05-10T08:46:35;6.45;;;3.88;;
41249;SDS011;26984;59.928;30.306;2023-05-10T08:49:06;7.38;;;3.70;;
41249;SDS011;26984;59.928;30.306;2023-05-10T08:51:35;5.20;;;4.15;;
41249;SDS011;26984;59.928;30.306;2023-05-10T08:54:07;10.13;;;8.85;;
41249;SDS011;26984;59.928;30.306;2023-05-10T08:56:35;4.40;;;4.05;;
41249;SDS011;26984;59.928;30.306;2023-05-10T08:59:05;4.43;;;3.97;;
41249;SDS011;26984;59.928;30.306;2023-05-10T09:01:33;5.97;;;3.53;;
41249;SDS011;26984;59.928;30.306;2023-05-10T09:04:03;5.47;;;3.65;;
41249;SDS011;26984;59.928;30.306;2023-05-10T09:06:31;7.10;;;3.15;;
41249;SDS011;26984;59.928;30.306;2023-05-10T09:09:01;4.65;;;4.05;;
41249;SDS011;26984;59.928;30.306;2023-05-10T09:11:29;11.43;;;3.95;;
41249;SDS011;26984;59.928;30.306;2023-05-10T09:13:57;6.82;;;3.78;;
41249;SDS011;26984;59.928;30.306;2023-05-10T09:16:26;7.35;;;4.43;;
41249;SDS011;26984;59.928;30.306;2023-05-10T09:18:54;9.45;;;4.15;;
41249;SDS011;26984;59.928;30.306;2023-05-10T09:21:23;6.75;;;5.43;;
41249;SDS011;26984;59.928;30.306;2023-05-10T09:23:50;5.63;;;3.53;;
41249;SDS011;26984;59.928;30.306;2023-05-10T09:26:21;7.32;;;3.60;;
41249;SDS011;26984;59.928;30.306;2023-05-10T09:28:50;9.07;;;3.72;;
41249;SDS011;26984;59.928;30.306;2023-05-10T09:31:19;4.70;;;3.20;;
41249;SDS011;26984;59.928;30.306;2023-05-10T09:36:16;7.75;;;3.35;;
41249;SDS011;26984;59.928;30.306;2023-05-10T09:38:45;4.75;;;3.03;;
41249;SDS011;26984;59.928;30.306;2023-05-10T09:41:17;3.63;;;3.25;;
41249;SDS011;26984;59.928;30.306;2023-05-10T09:43:46;8.15;;;7.35;;
41249;SDS011;26984;59.928;30.306;2023-05-10T09:48:42;6.45;;;5.78;;
41249;SDS011;26984;59.928;30.306;2023-05-10T09:51:19;12.23;;;3.22;;
41249;SDS011;26984;59.928;30.306;2023-05-10T09:53:48;3.30;;;3.00;;
41249;SDS011;26984;59.928;30.306;2023-05-10T09:56:35;3.53;;;3.13;;
41249;SDS011;26984;59.928;30.306;2023-05-10T09:59:06;4.97;;;4.47;;
41249;SDS011;26984;59.928;30.306;2023-05-10T10:01:35;5.03;;;3.80;;
41249;SDS011;26984;59.928;30.306;2023-05-10T10:04:03;4.32;;;2.80;;
41249;SDS011;26984;59.928;30.306;2023-05-10T10:06:36;4.05;;;3.60;;
41249;SDS011;26984;59.928;30.306;2023-05-10T10:09:05;8.00;;;3.10;;
41249;SDS011;26984;59.928;30.306;2023-05-10T10:11:34;8.15;;;3.92;;
41249;SDS011;26984;59.928;30.306;2023-05-10T10:14:02;5.78;;;3.15;;
41249;SDS011;26984;59.928;30.306;2023-05-10T10:16:31;7.28;;;3.63;;
41249;SDS011;26984;59.928;30.306;2023-05-10T10:18:59;6.95;;;3.53;;
41249;SDS011;26984;59.928;30.306;2023-05-10T10:21:28;5.75;;;3.20;;
41249;SDS011;26984;59.928;30.306;2023-05-10T10:23:58;3.58;;;2.67;;
41249;SDS011;26984;59.928;30.306;2023-05-10T10:26:26;4.45;;;3.10;;
41249;SDS011;26984;59.928;30.306;2023-05-10T10:28:57;3.95;;;2.60;;
41249;SDS011;26984;59.928;30.306;2023-05-10T10:31:36;5.80;;;3.58;;
41249;SDS011;26984;59.928;30.306;2023-05-10T10:34:08;3.40;;;2.63;;
41249;SDS011;26984;59.928;30.306;2023-05-10T10:36:40;4.15;;;3.72;;
41249;SDS011;26984;59.928;30.306;2023-05-10T10:39:10;5.30;;;3.08;;
41249;SDS011;26984;59.928;30.306;2023-05-10T10:41:39;11.82;;;4.53;;
41249;SDS011;26984;59.928;30.306;2023-05-10T10:44:24;3.97;;;3.13;;
41249;SDS011;26984;59.928;30.306;2023-05-10T10:47:22;5.95;;;3.47;;
41249;SDS011;26984;59.928;30.306;2023-05-10T10:52:30;5.35;;;3.58;;
41249;SDS011;26984;59.928;30.306;2023-05-10T10:55:02;3.95;;;3.38;;
41249;SDS011;26984;59.928;30.306;2023-05-10T10:57:33;4.40;;;3.08;;
41249;SDS011;26984;59.928;30.306;2023-05-10T11:00:20;3.45;;;3.15;;
41249;SDS011;26984;59.928;30.306;2023-05-10T11:02:51;5.30;;;2.70;;
41249;SDS011;26984;59.928;30.306;2023-05-10T11:05:24;4.38;;;3.30;;
41249;SDS011;26984;59.928;30.306;2023-05-10T11:08:00;2.78;;;2.50;;
41249;SDS011;26984;59.928;30.306;2023-05-10T11:10:36;9.40;;;3.30;;
41249;SDS011;26984;59.928;30.306;2023-05-10T11:13:05;5.30;;;3.03;;
41249;SDS011;26984;59.928;30.306;2023-05-10T11:15:34;4.93;;;3.38;;
41249;SDS011;26984;59.928;30.306;2023-05-10T11:18:18;8.00;;;3.90;;
41249;SDS011;26984;59.928;30.306;2023-05-10T11:20:49;4.30;;;3.00;;
41249;SDS011;26984;59.928;30.306;2023-05-10T11:23:19;4.47;;;3.03;;
41249;SDS011;26984;59.928;30.306;2023-05-10T11:25:49;3.22;;;2.80;;
41249;SDS011;26984;59.928;30.306;2023-05-10T11:28:17;4.00;;;2.97;;
41249;SDS011;26984;59.928;30.306;2023-05-10T11:30:45;4.93;;;2.78;;
41249;SDS011;26984;59.928;30.306;2023-05-10T11:33:17;4.05;;;2.70;;
41249;SDS011;26984;59.928;30.306;2023-05-10T11:35:46;7.60;;;3.30;;
41249;SDS011;26984;59.928;30.306;2023-05-10T11:38:14;9.40;;;3.75;;
41249;SDS011;26984;59.928;30.306;2023-05-10T11:40:42;7.25;;;2.85;;
41249;SDS011;26984;59.928;30.306;2023-05-10T11:43:12;7.80;;;3.03;;
41249;SDS011;26984;59.928;30.306;2023-05-10T11:45:40;7.78;;;2.88;;
41249;SDS011;26984;59.928;30.306;2023-05-10T11:48:08;4.57;;;3.03;;
41249;SDS011;26984;59.928;30.306;2023-05-10T11:50:36;13.65;;;3.92;;
41249;SDS011;26984;59.928;30.306;2023-05-10T11:53:05;11.70;;;4.25;;
41249;SDS011;26984;59.928;30.306;2023-05-10T11:58:01;10.05;;;3.90;;
41249;SDS011;26984;59.928;30.306;2023-05-10T12:00:31;8.63;;;3.13;;
41249;SDS011;26984;59.928;30.306;2023-05-10T12:03:00;14.77;;;2.80;;
41249;SDS011;26984;59.928;30.306;2023-05-10T12:05:31;3.25;;;2.80;;
41249;SDS011;26984;59.928;30.306;2023-05-10T12:08:12;4.72;;;2.53;;
41249;SDS011;26984;59.928;30.306;2023-05-10T12:10:42;5.57;;;3.63;;
41249;SDS011;26984;59.928;30.306;2023-05-10T12:13:13;6.47;;;3.70;;
41249;SDS011;26984;59.928;30.306;2023-05-10T12:15:43;5.32;;;3.05;;
41249;SDS011;26984;59.928;30.306;2023-05-10T12:18:11;6.30;;;2.70;;
41249;SDS011;26984;59.928;30.306;2023-05-10T12:20:40;5.15;;;2.97;;
41249;SDS011;26984;59.928;30.306;2023-05-10T12:23:09;4.93;;;2.85;;
41249;SDS011;26984;59.928;30.306;2023-05-10T12:25:38;6.05;;;3.65;;
41249;SDS011;26984;59.928;30.306;2023-05-10T12:28:07;9.68;;;4.07;;
41249;SDS011;26984;59.928;30.306;2023-05-10T12:30:36;3.97;;;2.58;;
41249;SDS011;26984;59.928;30.306;2023-05-10T12:33:10;3.85;;;2.28;;
41249;SDS011;26984;59.928;30.306;2023-05-10T12:35:44;3.20;;;2.53;;
41249;SDS011;26984;59.928;30.306;2023-05-10T12:38:26;5.40;;;3.03;;
41249;SDS011;26984;59.928;30.306;2023-05-10T12:40:57;10.18;;;4.03;;
41249;SDS011;26984;59.928;30.306;2023-05-10T12:43:25;5.03;;;4.07;;
41249;SDS011;26984;59.928;30.306;2023-05-10T12:45:54;2.70;;;2.40;;
41249;SDS011;26984;59.928;30.306;2023-05-10T12:48:24;4.65;;;2.83;;
41249;SDS011;26984;59.928;30.306;2023-05-10T12:50:52;6.00;;;2.88;;
41249;SDS011;26984;59.928;30.306;2023-05-10T12:55:47;6.97;;;3.83;;
41249;SDS011;26984;59.928;30.306;2023-05-10T13:00:42;7.55;;;3.50;;
41249;SDS011;26984;59.928;30.306;2023-05-10T13:03:10;8.55;;;4.22;;
41249;SDS011;26984;59.928;30.306;2023-05-10T13:05:40;6.22;;;3.42;;
41249;SDS011;26984;59.928;30.306;2023-05-10T13:08:08;10.50;;;4.20;;
41249;SDS011;26984;59.928;30.306;2023-05-10T13:13:03;6.57;;;2.95;;
41249;SDS011;26984;59.928;30.306;2023-05-10T13:15:31;6.63;;;3.38;;
41249;SDS011;26984;59.928;30.306;2023-05-10T13:17:59;4.97;;;2.75;;
41249;SDS011;26984;59.928;30.306;2023-05-10T13:20:27;11.55;;;3.20;;
41249;SDS011;26984;59.928;30.306;2023-05-10T13:25:24;6.50;;;4.28;;
41249;SDS011;26984;59.928;30.306;2023-05-10T13:27:52;4.78;;;3.47;;
41249;SDS011;26984;59.928;30.306;2023-05-10T13:32:47;4.68;;;3.03;;
41249;SDS011;26984;59.928;30.306;2023-05-10T13:35:16;7.15;;;3.65;;
41249;SDS011;26984;59.928;30.306;2023-05-10T13:37:43;3.13;;;2.45;;
41249;SDS011;26984;59.928;30.306;2023-05-10T13:40:13;5.97;;;3.72;;
41249;SDS011;26984;59.928;30.306;2023-05-10T13:42:41;3.15;;;2.85;;
41249;SDS011;26984;59.928;30.306;2023-05-10T13:45:10;5.53;;;3.30;;
41249;SDS011;26984;59.928;30.306;2023-05-10T13:47:39;3.47;;;2.63;;
41249;SDS011;26984;59.928;30.306;2023-05-10T13:52:34;6.10;;;4.00;;
41249;SDS011;26984;59.928;30.306;2023-05-10T13:55:02;3.42;;;2.75;;
41249;SDS011;26984;59.928;30.306;2023-05-10T13:57:32;6.82;;;3.45;;
41249;SDS011;26984;59.928;30.306;2023-05-10T14:00:01;5.57;;;3.13;;
41249;SDS011;26984;59.928;30.306;2023-05-10T14:02:34;7.20;;;3.08;;
41249;SDS011;26984;59.928;30.306;2023-05-10T14:07:29;3.33;;;3.00;;
41249;SDS011;26984;59.928;30.306;2023-05-10T14:09:58;6.45;;;4.10;;
41249;SDS011;26984;59.928;30.306;2023-05-10T14:12:26;6.72;;;2.95;;
41249;SDS011;26984;59.928;30.306;2023-05-10T14:14:56;4.13;;;3.50;;
41249;SDS011;26984;59.928;30.306;2023-05-10T14:17:24;4.32;;;2.97;;
41249;SDS011;26984;59.928;30.306;2023-05-10T14:22:19;5.95;;;3.58;;
41249;SDS011;26984;59.928;30.306;2023-05-10T14:24:48;6.70;;;6.13;;
41249;SDS011;26984;59.928;30.306;2023-05-10T14:27:16;7.32;;;3.10;;
41249;SDS011;26984;59.928;30.306;2023-05-10T14:32:13;7.80;;;3.60;;
41249;SDS011;26984;59.928;30.306;2023-05-10T14:34:41;5.22;;;3.13;;
41249;SDS011;26984;59.928;30.306;2023-05-10T14:39:37;10.18;;;4.00;;
41249;SDS011;26984;59.928;30.306;2023-05-10T14:44:32;5.18;;;3.83;;
41249;SDS011;26984;59.928;30.306;2023-05-10T14:49:29;14.27;;;3.72;;
41249;SDS011;26984;59.928;30.306;2023-05-10T14:51:57;6.18;;;3.80;;
41249;SDS011;26984;59.928;30.306;2023-05-10T14:56:53;6.30;;;3.08;;
41249;SDS011;26984;59.928;30.306;2023-05-10T14:59:21;12.02;;;4.70;;
41249;SDS011;26984;59.928;30.306;2023-05-10T15:01:49;4.10;;;3.67;;
41249;SDS011;26984;59.928;30.306;2023-05-10T15:04:19;5.05;;;4.55;;
41249;SDS011;26984;59.928;30.306;2023-05-10T15:06:49;4.82;;;3.35;;
41249;SDS011;26984;59.928;30.306;2023-05-10T15:09:16;3.58;;;3.25;;
41249;SDS011;26984;59.928;30.306;2023-05-10T15:14:12;5.57;;;3.50;;
41249;SDS011;26984;59.928;30.306;2023-05-10T15:19:07;7.53;;;3.65;;
41249;SDS011;26984;59.928;30.306;2023-05-10T15:21:35;6.22;;;4.35;;
41249;SDS011;26984;59.928;30.306;2023-05-10T15:24:06;5.88;;;3.50;;
41249;SDS011;26984;59.928;30.306;2023-05-10T15:26:34;5.60;;;4.03;;
41249;SDS011;26984;59.928;30.306;2023-05-10T15:29:02;9.95;;;3.97;;
41249;SDS011;26984;59.928;30.306;2023-05-10T15:31:29;9.90;;;4.65;;
41249;SDS011;26984;59.928;30.306;2023-05-10T15:33:57;7.15;;;4.30;;
41249;SDS011;26984;59.928;30.306;2023-05-10T15:36:26;10.68;;;4.93;;
41249;SDS011;26984;59.928;30.306;2023-05-10T15:38:54;8.95;;;5.00;;
41249;SDS011;26984;59.928;30.306;2023-05-10T15:41:23;9.25;;;4.68;;
41249;SDS011;26984;59.928;30.306;2023-05-10T15:43:51;7.88;;;4.43;;
41249;SDS011;26984;59.928;30.306;2023-05-10T15:46:19;6.40;;;4.72;;
41249;SDS011;26984;59.928;30.306;2023-05-10T15:48:47;6.47;;;4.20;;
41249;SDS011;26984;59.928;30.306;2023-05-10T15:51:14;5.57;;;4.20;;
41249;SDS011;26984;59.928;30.306;2023-05-10T15:53:42;6.05;;;5.10;;
41249;SDS011;26984;59.928;30.306;2023-05-10T15:56:10;5.70;;;3.72;;
41249;SDS011;26984;59.928;30.306;2023-05-10T15:58:40;9.85;;;4.00;;
41249;SDS011;26984;59.928;30.306;2023-05-10T16:01:09;7.07;;;4.43;;
41249;SDS011;26984;59.928;30.306;2023-05-10T16:03:38;6.95;;;4.00;;
41249;SDS011;26984;59.928;30.306;2023-05-10T16:06:06;5.40;;;4.55;;